sensor_id;sensor_type;location;lat;lon;timestamp;pressure;altitude;pressure_sealevel;temperature;humidity
71621;BME280;59471;42.254;23.102;2024-02-21T00:02:07;96550.38;;;6.07;81.10
71621;BME280;59471;42.254;23.102;2024-02-21T00:04:33;96558.78;;;6.30;80.81
71621;BME280;59471;42.254;23.102;2024-02-21T00:06:59;96562.16;;;6.20;81.32
71621;BME280;59471;42.254;23.102;2024-02-21T00:09:24;96560.78;;;6.16;81.64
71621;BME280;59471;42.254;23.102;2024-02-21T00:11:50;96561.91;;;6.23;81.38
71621;BME280;59471;42.254;23.102;2024-02-21T00:14:15;96563.03;;;6.31;81.42
71621;BME280;59471;42.254;23.102;2024-02-21T00:16:41;96568.16;;;6.11;82.16
71621;BME280;59471;42.254;23.102;2024-02-21T00:19:07;96567.06;;;6.04;82.24
71621;BME280;59471;42.254;23.102;2024-02-21T00:21:32;96567.19;;;6.02;82.53
71621;BME280;59471;42.254;23.102;2024-02-21T00:23:58;96564.56;;;5.93;82.43
71621;BME280;59471;42.254;23.102;2024-02-21T00:26:23;96567.31;;;6.01;83.26
71621;BME280;59471;42.254;23.102;2024-02-21T00:28:49;96562.38;;;5.98;83.33
71621;BME280;59471;42.254;23.102;2024-02-21T00:31:14;96558.69;;;5.79;83.09
71621;BME280;59471;42.254;23.102;2024-02-21T00:33:40;96563.59;;;5.94;83.83
71621;BME280;59471;42.254;23.102;2024-02-21T00:36:05;96563.84;;;6.21;82.36
71621;BME280;59471;42.254;23.102;2024-02-21T00:38:31;96562.44;;;6.17;82.03
71621;BME280;59471;42.254;23.102;2024-02-21T00:40:56;96564.78;;;6.20;82.05
71621;BME280;59471;42.254;23.102;2024-02-21T00:43:22;96555.53;;;5.97;82.24
71621;BME280;59471;42.254;23.102;2024-02-21T00:45:49;96559.81;;;5.77;82.67
71621;BME280;59471;42.254;23.102;2024-02-21T00:48:15;96557.06;;;5.78;82.73
71621;BME280;59471;42.254;23.102;2024-02-21T00:50:40;96565.56;;;5.80;83.12
71621;BME280;59471;42.254;23.102;2024-02-21T00:53:06;96556.03;;;5.91;83.81
71621;BME280;59471;42.254;23.102;2024-02-21T00:55:31;96556.84;;;5.91;83.11
71621;BME280;59471;42.254;23.102;2024-02-21T00:57:57;96558.81;;;5.99;82.29
71621;BME280;59471;42.254;23.102;2024-02-21T01:00:22;96559.09;;;5.96;83.06
71621;BME280;59471;42.254;23.102;2024-02-21T01:02:48;96558.25;;;5.95;82.51
71621;BME280;59471;42.254;23.102;2024-02-21T01:05:13;96557.91;;;5.89;82.95
71621;BME280;59471;42.254;23.102;2024-02-21T01:07:39;96564.06;;;6.09;81.83
71621;BME280;59471;42.254;23.102;2024-02-21T01:10:05;96555.59;;;6.16;81.40
71621;BME280;59471;42.254;23.102;2024-02-21T01:12:31;96551.19;;;6.07;82.86
71621;BME280;59471;42.254;23.102;2024-02-21T01:14:57;96545.25;;;5.95;83.49
71621;BME280;59471;42.254;23.102;2024-02-21T01:17:22;96548.69;;;5.96;83.10
71621;BME280;59471;42.254;23.102;2024-02-21T01:19:48;96547.03;;;5.95;83.89
71621;BME280;59471;42.254;23.102;2024-02-21T01:22:14;96544.25;;;5.87;83.70
71621;BME280;59471;42.254;23.102;2024-02-21T01:24:41;96541.22;;;5.81;84.61
71621;BME280;59471;42.254;23.102;2024-02-21T01:27:06;96536.38;;;5.98;83.67
71621;BME280;59471;42.254;23.102;2024-02-21T01:29:32;96536.13;;;5.49;85.85
71621;BME280;59471;42.254;23.102;2024-02-21T01:31:57;96528.59;;;5.25;87.50
71621;BME280;59471;42.254;23.102;2024-02-21T01:34:23;96530.84;;;5.30;86.76
71621;BME280;59471;42.254;23.102;2024-02-21T01:36:49;96525.28;;;5.65;85.89
71621;BME280;59471;42.254;23.102;2024-02-21T01:39:14;96528.53;;;5.67;85.44
71621;BME280;59471;42.254;23.102;2024-02-21T01:41:40;96522.41;;;5.68;85.04
71621;BME280;59471;42.254;23.102;2024-02-21T01:44:05;96521.19;;;5.72;85.26
71621;BME280;59471;42.254;23.102;2024-02-21T01:46:31;96520.50;;;6.01;83.51
71621;BME280;59471;42.254;23.102;2024-02-21T01:48:57;96519.44;;;6.03;83.41
71621;BME280;59471;42.254;23.102;2024-02-21T01:51:26;96519.28;;;6.05;82.84
71621;BME280;59471;42.254;23.102;2024-02-21T01:53:53;96522.47;;;6.09;82.55
71621;BME280;59471;42.254;23.102;2024-02-21T01:56:19;96513.69;;;6.10;82.94
71621;BME280;59471;42.254;23.102;2024-02-21T01:58:45;96511.19;;;5.98;82.47
71621;BME280;59471;42.254;23.102;2024-02-21T02:01:11;96511.06;;;5.69;84.62
71621;BME280;59471;42.254;23.102;2024-02-21T02:03:37;96510.97;;;5.80;84.76
71621;BME280;59471;42.254;23.102;2024-02-21T02:06:05;96507.53;;;5.80;85.14
71621;BME280;59471;42.254;23.102;2024-02-21T02:08:32;96507.94;;;6.06;83.13
71621;BME280;59471;42.254;23.102;2024-02-21T02:10:57;96503.53;;;5.97;83.36
71621;BME280;59471;42.254;23.102;2024-02-21T02:13:23;96501.44;;;5.91;83.81
71621;BME280;59471;42.254;23.102;2024-02-21T02:15:49;96510.28;;;5.78;84.26
71621;BME280;59471;42.254;23.102;2024-02-21T02:18:16;96504.78;;;5.72;84.89
71621;BME280;59471;42.254;23.102;2024-02-21T02:20:46;96507.69;;;5.78;84.11
71621;BME280;59471;42.254;23.102;2024-02-21T02:23:23;96505.31;;;5.96;83.20
71621;BME280;59471;42.254;23.102;2024-02-21T02:25:58;96511.28;;;5.87;84.07
71621;BME280;59471;42.254;23.102;2024-02-21T02:28:24;96504.28;;;5.88;83.45
71621;BME280;59471;42.254;23.102;2024-02-21T02:30:50;96502.41;;;5.90;83.28
71621;BME280;59471;42.254;23.102;2024-02-21T02:33:16;96502.31;;;6.01;82.91
71621;BME280;59471;42.254;23.102;2024-02-21T02:35:45;96498.94;;;5.89;83.55
71621;BME280;59471;42.254;23.102;2024-02-21T02:38:11;96490.00;;;5.72;83.72
71621;BME280;59471;42.254;23.102;2024-02-21T02:40:38;96494.69;;;5.78;84.26
71621;BME280;59471;42.254;23.102;2024-02-21T02:43:04;96490.88;;;5.92;82.89
71621;BME280;59471;42.254;23.102;2024-02-21T02:45:29;96483.31;;;5.79;83.32
71621;BME280;59471;42.254;23.102;2024-02-21T02:47:55;96485.34;;;5.66;84.58
71621;BME280;59471;42.254;23.102;2024-02-21T02:50:25;96488.38;;;5.71;84.82
71621;BME280;59471;42.254;23.102;2024-02-21T02:52:51;96485.06;;;5.69;84.06
71621;BME280;59471;42.254;23.102;2024-02-21T02:55:17;96481.72;;;5.57;85.00
71621;BME280;59471;42.254;23.102;2024-02-21T02:57:43;96479.84;;;5.60;84.24
71621;BME280;59471;42.254;23.102;2024-02-21T03:00:13;96482.00;;;5.54;85.33
71621;BME280;59471;42.254;23.102;2024-02-21T03:02:40;96485.69;;;5.52;84.90
71621;BME280;59471;42.254;23.102;2024-02-21T03:05:18;96492.44;;;5.64;85.38
71621;BME280;59471;42.254;23.102;2024-02-21T03:07:45;96492.78;;;5.80;84.71
71621;BME280;59471;42.254;23.102;2024-02-21T03:10:11;96496.53;;;5.67;85.35
71621;BME280;59471;42.254;23.102;2024-02-21T03:12:38;96506.38;;;5.63;85.78
71621;BME280;59471;42.254;23.102;2024-02-21T03:15:05;96503.56;;;5.76;84.96
71621;BME280;59471;42.254;23.102;2024-02-21T03:17:31;96505.09;;;5.78;84.91
71621;BME280;59471;42.254;23.102;2024-02-21T03:19:57;96507.56;;;5.49;86.47
71621;BME280;59471;42.254;23.102;2024-02-21T03:22:25;96510.53;;;5.45;87.27
71621;BME280;59471;42.254;23.102;2024-02-21T03:24:50;96508.81;;;5.55;86.34
71621;BME280;59471;42.254;23.102;2024-02-21T03:27:16;96507.97;;;5.54;87.12
71621;BME280;59471;42.254;23.102;2024-02-21T03:29:42;96507.63;;;5.38;87.40
71621;BME280;59471;42.254;23.102;2024-02-21T03:32:08;96505.22;;;5.46;87.42
71621;BME280;59471;42.254;23.102;2024-02-21T03:34:33;96502.69;;;5.35;88.10
71621;BME280;59471;42.254;23.102;2024-02-21T03:36:59;96493.97;;;5.36;88.28
71621;BME280;59471;42.254;23.102;2024-02-21T03:39:25;96494.53;;;5.40;87.97
71621;BME280;59471;42.254;23.102;2024-02-21T03:41:50;96503.28;;;5.48;87.45
71621;BME280;59471;42.254;23.102;2024-02-21T03:44:16;96503.53;;;5.66;86.82
71621;BME280;59471;42.254;23.102;2024-02-21T03:46:42;96512.09;;;5.57;86.87
71621;BME280;59471;42.254;23.102;2024-02-21T03:49:07;96506.09;;;5.35;87.79
71621;BME280;59471;42.254;23.102;2024-02-21T03:51:33;96509.75;;;5.54;87.26
71621;BME280;59471;42.254;23.102;2024-02-21T03:53:58;96509.75;;;5.54;86.35
71621;BME280;59471;42.254;23.102;2024-02-21T03:56:24;96517.38;;;5.76;85.71
71621;BME280;59471;42.254;23.102;2024-02-21T03:58:50;96519.84;;;5.78;84.36
71621;BME280;59471;42.254;23.102;2024-02-21T04:01:16;96516.56;;;5.76;85.18
71621;BME280;59471;42.254;23.102;2024-02-21T04:03:44;96523.25;;;5.48;85.40
71621;BME280;59471;42.254;23.102;2024-02-21T04:06:09;96515.47;;;5.48;87.10
71621;BME280;59471;42.254;23.102;2024-02-21T04:08:35;96518.06;;;5.48;86.31
71621;BME280;59471;42.254;23.102;2024-02-21T04:11:00;96507.72;;;5.57;86.17
71621;BME280;59471;42.254;23.102;2024-02-21T04:13:26;96510.72;;;5.53;86.62
71621;BME280;59471;42.254;23.102;2024-02-21T04:15:52;96510.41;;;5.46;86.33
71621;BME280;59471;42.254;23.102;2024-02-21T04:18:17;96515.09;;;5.52;85.86
71621;BME280;59471;42.254;23.102;2024-02-21T04:20:43;96511.09;;;5.48;85.64
71621;BME280;59471;42.254;23.102;2024-02-21T04:23:08;96513.69;;;5.48;86.27
71621;BME280;59471;42.254;23.102;2024-02-21T04:25:34;96513.75;;;5.58;85.90
71621;BME280;59471;42.254;23.102;2024-02-21T04:27:59;96510.69;;;5.43;86.31
71621;BME280;59471;42.254;23.102;2024-02-21T04:30:25;96512.50;;;5.31;86.37
71621;BME280;59471;42.254;23.102;2024-02-21T04:32:51;96519.28;;;5.44;86.41
71621;BME280;59471;42.254;23.102;2024-02-21T04:35:16;96522.41;;;5.38;86.92
71621;BME280;59471;42.254;23.102;2024-02-21T04:37:42;96521.38;;;5.50;85.62
71621;BME280;59471;42.254;23.102;2024-02-21T04:40:08;96524.41;;;5.55;85.60
71621;BME280;59471;42.254;23.102;2024-02-21T04:42:34;96527.78;;;5.76;83.67
71621;BME280;59471;42.254;23.102;2024-02-21T04:45:00;96520.50;;;5.40;85.95
71621;BME280;59471;42.254;23.102;2024-02-21T04:47:26;96533.97;;;5.54;85.47
71621;BME280;59471;42.254;23.102;2024-02-21T04:49:52;96523.25;;;5.48;85.57
71621;BME280;59471;42.254;23.102;2024-02-21T04:52:18;96529.53;;;5.45;85.70
71621;BME280;59471;42.254;23.102;2024-02-21T04:54:43;96529.06;;;5.61;85.56
71621;BME280;59471;42.254;23.102;2024-02-21T04:57:09;96529.13;;;5.71;85.49
71621;BME280;59471;42.254;23.102;2024-02-21T04:59:35;96521.13;;;5.53;86.97
71621;BME280;59471;42.254;23.102;2024-02-21T05:02:02;96517.25;;;5.47;87.33
71621;BME280;59471;42.254;23.102;2024-02-21T05:04:28;96518.00;;;5.59;87.18
71621;BME280;59471;42.254;23.102;2024-02-21T05:06:53;96523.97;;;5.29;88.19
71621;BME280;59471;42.254;23.102;2024-02-21T05:09:19;96518.47;;;5.43;87.85
71621;BME280;59471;42.254;23.102;2024-02-21T05:11:45;96530.13;;;5.49;87.19
71621;BME280;59471;42.254;23.102;2024-02-21T05:14:11;96522.59;;;5.46;86.83
71621;BME280;59471;42.254;23.102;2024-02-21T05:16:38;96525.28;;;5.65;86.68
71621;BME280;59471;42.254;23.102;2024-02-21T05:19:04;96515.91;;;5.53;86.70
71621;BME280;59471;42.254;23.102;2024-02-21T05:21:30;96532.03;;;5.47;86.07
71621;BME280;59471;42.254;23.102;2024-02-21T05:23:56;96527.28;;;5.52;86.66
71621;BME280;59471;42.254;23.102;2024-02-21T05:26:25;96525.28;;;5.44;86.92
71621;BME280;59471;42.254;23.102;2024-02-21T05:28:51;96532.78;;;5.38;86.96
71621;BME280;59471;42.254;23.102;2024-02-21T05:31:20;96523.00;;;5.20;87.84
71621;BME280;59471;42.254;23.102;2024-02-21T05:33:46;96535.53;;;5.36;87.10
71621;BME280;59471;42.254;23.102;2024-02-21T05:36:13;96530.13;;;5.28;87.25
71621;BME280;59471;42.254;23.102;2024-02-21T05:38:39;96531.91;;;5.27;87.75
71621;BME280;59471;42.254;23.102;2024-02-21T05:41:05;96533.91;;;5.45;86.98
71621;BME280;59471;42.254;23.102;2024-02-21T05:43:30;96543.03;;;5.60;86.60
71621;BME280;59471;42.254;23.102;2024-02-21T05:45:57;96534.63;;;5.47;87.15
71621;BME280;59471;42.254;23.102;2024-02-21T05:48:23;96545.00;;;5.47;86.97
71621;BME280;59471;42.254;23.102;2024-02-21T05:50:49;96530.91;;;5.40;87.04
71621;BME280;59471;42.254;23.102;2024-02-21T05:53:14;96551.78;;;5.59;86.73
71621;BME280;59471;42.254;23.102;2024-02-21T05:55:40;96549.34;;;5.67;86.31
71621;BME280;59471;42.254;23.102;2024-02-21T05:58:06;96552.81;;;5.47;86.50
71621;BME280;59471;42.254;23.102;2024-02-21T06:00:32;96562.06;;;5.40;86.79
71621;BME280;59471;42.254;23.102;2024-02-21T06:02:58;96564.75;;;5.59;86.71
71621;BME280;59471;42.254;23.102;2024-02-21T06:05:24;96559.91;;;5.75;85.51
71621;BME280;59471;42.254;23.102;2024-02-21T06:07:50;96567.66;;;5.87;85.25
71621;BME280;59471;42.254;23.102;2024-02-21T06:10:16;96570.88;;;6.00;84.99
71621;BME280;59471;42.254;23.102;2024-02-21T06:12:41;96570.25;;;5.87;84.70
71621;BME280;59471;42.254;23.102;2024-02-21T06:15:08;96572.13;;;5.85;84.71
71621;BME280;59471;42.254;23.102;2024-02-21T06:17:33;96582.78;;;6.02;84.00
71621;BME280;59471;42.254;23.102;2024-02-21T06:19:59;96585.19;;;6.25;83.87
71621;BME280;59471;42.254;23.102;2024-02-21T06:22:24;96584.19;;;6.16;83.62
71621;BME280;59471;42.254;23.102;2024-02-21T06:24:50;96591.19;;;6.16;83.99
71621;BME280;59471;42.254;23.102;2024-02-21T06:27:16;96592.09;;;6.05;84.58
71621;BME280;59471;42.254;23.102;2024-02-21T06:29:42;96590.44;;;6.04;84.30
71621;BME280;59471;42.254;23.102;2024-02-21T06:32:08;96588.94;;;6.01;84.82
71621;BME280;59471;42.254;23.102;2024-02-21T06:34:33;96598.00;;;6.07;84.37
71621;BME280;59471;42.254;23.102;2024-02-21T06:36:59;96601.78;;;5.93;84.62
71621;BME280;59471;42.254;23.102;2024-02-21T06:39:24;96604.94;;;5.97;84.67
71621;BME280;59471;42.254;23.102;2024-02-21T06:41:50;96606.72;;;5.96;84.07
71621;BME280;59471;42.254;23.102;2024-02-21T06:44:21;96604.03;;;6.17;83.48
71621;BME280;59471;42.254;23.102;2024-02-21T06:46:47;96605.28;;;6.13;82.55
71621;BME280;59471;42.254;23.102;2024-02-21T06:49:12;96607.97;;;6.42;82.96
71621;BME280;59471;42.254;23.102;2024-02-21T06:51:42;96615.88;;;6.31;83.59
71621;BME280;59471;42.254;23.102;2024-02-21T06:54:08;96600.53;;;6.28;83.20
71621;BME280;59471;42.254;23.102;2024-02-21T06:56:35;96611.59;;;6.20;83.71
71621;BME280;59471;42.254;23.102;2024-02-21T06:59:01;96622.44;;;6.25;82.07
71621;BME280;59471;42.254;23.102;2024-02-21T07:01:28;96617.28;;;6.45;82.57
71621;BME280;59471;42.254;23.102;2024-02-21T07:03:54;96617.03;;;6.48;82.09
71621;BME280;59471;42.254;23.102;2024-02-21T07:06:20;96614.84;;;6.53;80.76
71621;BME280;59471;42.254;23.102;2024-02-21T07:08:45;96613.19;;;6.52;81.42
71621;BME280;59471;42.254;23.102;2024-02-21T07:11:11;96607.16;;;6.52;80.93
71621;BME280;59471;42.254;23.102;2024-02-21T07:13:36;96611.03;;;6.67;80.54
71621;BME280;59471;42.254;23.102;2024-02-21T07:16:02;96612.66;;;6.58;80.65
71621;BME280;59471;42.254;23.102;2024-02-21T07:18:27;96610.72;;;6.41;81.42
71621;BME280;59471;42.254;23.102;2024-02-21T07:20:53;96611.03;;;6.57;80.88
71621;BME280;59471;42.254;23.102;2024-02-21T07:23:19;96613.19;;;6.52;81.10
71621;BME280;59471;42.254;23.102;2024-02-21T07:25:44;96616.06;;;6.49;81.41
71621;BME280;59471;42.254;23.102;2024-02-21T07:28:10;96609.22;;;6.48;80.71
71621;BME280;59471;42.254;23.102;2024-02-21T07:30:38;96603.91;;;6.59;81.24
71621;BME280;59471;42.254;23.102;2024-02-21T07:33:04;96609.16;;;6.79;80.36
71621;BME280;59471;42.254;23.102;2024-02-21T07:35:30;96609.16;;;6.98;78.48
71621;BME280;59471;42.254;23.102;2024-02-21T07:37:55;96616.53;;;6.83;78.14
71621;BME280;59471;42.254;23.102;2024-02-21T07:40:21;96613.13;;;6.83;79.28
71621;BME280;59471;42.254;23.102;2024-02-21T07:42:46;96616.81;;;6.90;78.44
71621;BME280;59471;42.254;23.102;2024-02-21T07:45:12;96624.50;;;6.82;79.12
71621;BME280;59471;42.254;23.102;2024-02-21T07:47:37;96618.50;;;6.91;78.27
71621;BME280;59471;42.254;23.102;2024-02-21T07:50:03;96606.69;;;6.87;78.69
71621;BME280;59471;42.254;23.102;2024-02-21T07:52:29;96611.66;;;7.09;77.47
71621;BME280;59471;42.254;23.102;2024-02-21T07:54:55;96613.56;;;7.17;77.43
71621;BME280;59471;42.254;23.102;2024-02-21T07:57:20;96611.50;;;7.20;77.09
71621;BME280;59471;42.254;23.102;2024-02-21T07:59:47;96615.63;;;7.33;77.06
71621;BME280;59471;42.254;23.102;2024-02-21T08:02:15;96614.63;;;7.43;74.74
71621;BME280;59471;42.254;23.102;2024-02-21T08:04:41;96595.19;;;7.38;74.66
71621;BME280;59471;42.254;23.102;2024-02-21T08:07:07;96609.16;;;7.37;74.31
71621;BME280;59471;42.254;23.102;2024-02-21T08:09:32;96611.47;;;7.59;73.34
71621;BME280;59471;42.254;23.102;2024-02-21T08:11:58;96613.22;;;7.69;70.59
71621;BME280;59471;42.254;23.102;2024-02-21T08:14:24;96607.50;;;7.55;72.30
71621;BME280;59471;42.254;23.102;2024-02-21T08:16:52;96605.03;;;7.54;74.21
71621;BME280;59471;42.254;23.102;2024-02-21T08:19:19;96606.66;;;7.64;74.77
71621;BME280;59471;42.254;23.102;2024-02-21T08:21:45;96602.59;;;7.99;73.33
71621;BME280;59471;42.254;23.102;2024-02-21T08:24:14;96612.91;;;7.91;71.22
71621;BME280;59471;42.254;23.102;2024-02-21T08:26:45;96609.56;;;8.08;69.86
71621;BME280;59471;42.254;23.102;2024-02-21T08:29:11;96611.25;;;7.90;69.91
71621;BME280;59471;42.254;23.102;2024-02-21T08:31:37;96609.34;;;7.92;69.66
71621;BME280;59471;42.254;23.102;2024-02-21T08:34:03;96610.41;;;7.99;68.59
71621;BME280;59471;42.254;23.102;2024-02-21T08:36:33;96617.25;;;8.00;68.24
71621;BME280;59471;42.254;23.102;2024-02-21T08:39:00;96604.94;;;7.93;69.22
71621;BME280;59471;42.254;23.102;2024-02-21T08:41:26;96611.38;;;7.98;69.42
71621;BME280;59471;42.254;23.102;2024-02-21T08:43:52;96618.03;;;8.20;68.01
71621;BME280;59471;42.254;23.102;2024-02-21T08:46:22;96611.72;;;7.76;69.73
71621;BME280;59471;42.254;23.102;2024-02-21T08:48:50;96616.16;;;8.03;69.46
71621;BME280;59471;42.254;23.102;2024-02-21T08:51:17;96610.34;;;8.19;68.51
71621;BME280;59471;42.254;23.102;2024-02-21T08:53:46;96613.25;;;8.16;70.88
71621;BME280;59471;42.254;23.102;2024-02-21T08:56:12;96618.00;;;8.30;69.51
71621;BME280;59471;42.254;23.102;2024-02-21T08:58:39;96619.19;;;8.45;68.76
71621;BME280;59471;42.254;23.102;2024-02-21T09:01:05;96622.88;;;8.52;69.51
71621;BME280;59471;42.254;23.102;2024-02-21T09:03:32;96624.38;;;8.73;68.45
71621;BME280;59471;42.254;23.102;2024-02-21T09:05:59;96613.28;;;8.71;67.54
71621;BME280;59471;42.254;23.102;2024-02-21T09:08:25;96609.13;;;8.78;66.52
71621;BME280;59471;42.254;23.102;2024-02-21T09:10:52;96604.81;;;8.59;68.20
71621;BME280;59471;42.254;23.102;2024-02-21T09:13:18;96612.44;;;8.52;67.24
71621;BME280;59471;42.254;23.102;2024-02-21T09:15:43;96607.19;;;8.80;67.41
71621;BME280;59471;42.254;23.102;2024-02-21T09:18:09;96603.50;;;8.73;65.84
71621;BME280;59471;42.254;23.102;2024-02-21T09:20:35;96599.56;;;8.31;66.15
71621;BME280;59471;42.254;23.102;2024-02-21T09:23:01;96609.19;;;8.41;66.10
71621;BME280;59471;42.254;23.102;2024-02-21T09:25:26;96609.59;;;8.64;66.32
71621;BME280;59471;42.254;23.102;2024-02-21T09:27:54;96614.19;;;8.79;66.91
71621;BME280;59471;42.254;23.102;2024-02-21T09:30:20;96607.59;;;9.21;64.32
71621;BME280;59471;42.254;23.102;2024-02-21T09:32:46;96608.97;;;8.97;64.91
71621;BME280;59471;42.254;23.102;2024-02-21T09:35:12;96599.97;;;9.10;63.66
71621;BME280;59471;42.254;23.102;2024-02-21T09:37:38;96605.75;;;9.39;63.17
71621;BME280;59471;42.254;23.102;2024-02-21T09:40:05;96602.34;;;9.21;61.81
71621;BME280;59471;42.254;23.102;2024-02-21T09:42:41;96604.88;;;9.13;61.39
71621;BME280;59471;42.254;23.102;2024-02-21T09:45:27;96607.13;;;9.43;62.40
71621;BME280;59471;42.254;23.102;2024-02-21T09:50:57;96604.06;;;9.74;61.41
71621;BME280;59471;42.254;23.102;2024-02-21T09:53:24;96603.00;;;9.59;60.12
71621;BME280;59471;42.254;23.102;2024-02-21T09:55:50;96596.78;;;9.60;59.89
71621;BME280;59471;42.254;23.102;2024-02-21T09:58:16;96591.03;;;9.82;61.66
71621;BME280;59471;42.254;23.102;2024-02-21T10:00:41;96590.81;;;10.02;61.46
71621;BME280;59471;42.254;23.102;2024-02-21T10:03:07;96587.75;;;10.32;58.22
71621;BME280;59471;42.254;23.102;2024-02-21T10:05:36;96585.03;;;10.24;60.30
71621;BME280;59471;42.254;23.102;2024-02-21T10:08:03;96587.78;;;10.49;57.92
71621;BME280;59471;42.254;23.102;2024-02-21T10:10:29;96576.63;;;10.38;57.30
71621;BME280;59471;42.254;23.102;2024-02-21T10:12:55;96581.25;;;10.44;57.69
71621;BME280;59471;42.254;23.102;2024-02-21T10:15:22;96576.69;;;10.55;58.76
71621;BME280;59471;42.254;23.102;2024-02-21T10:17:49;96574.75;;;10.57;56.83
71621;BME280;59471;42.254;23.102;2024-02-21T10:20:15;96566.56;;;10.68;58.05
71621;BME280;59471;42.254;23.102;2024-02-21T10:22:41;96568.22;;;10.77;58.06
71621;BME280;59471;42.254;23.102;2024-02-21T10:25:11;96559.72;;;10.75;57.14
71621;BME280;59471;42.254;23.102;2024-02-21T10:27:40;96558.22;;;10.56;59.23
71621;BME280;59471;42.254;23.102;2024-02-21T10:30:08;96550.81;;;10.52;57.64
71621;BME280;59471;42.254;23.102;2024-02-21T10:32:54;96547.53;;;10.50;57.14
71621;BME280;59471;42.254;23.102;2024-02-21T10:35:31;96543.28;;;10.40;56.50
71621;BME280;59471;42.254;23.102;2024-02-21T10:37:58;96547.03;;;10.46;56.93
71621;BME280;59471;42.254;23.102;2024-02-21T10:40:25;96534.97;;;10.19;56.35
71621;BME280;59471;42.254;23.102;2024-02-21T10:42:57;96542.34;;;10.66;57.61
71621;BME280;59471;42.254;23.102;2024-02-21T10:45:36;96535.16;;;10.84;56.61
71621;BME280;59471;42.254;23.102;2024-02-21T10:48:11;96530.75;;;10.93;55.77
71621;BME280;59471;42.254;23.102;2024-02-21T10:51:03;96519.94;;;11.37;56.21
71621;BME280;59471;42.254;23.102;2024-02-21T10:59:01;96516.09;;;11.80;52.86
71621;BME280;59471;42.254;23.102;2024-02-21T11:01:28;96507.28;;;11.65;53.55
71621;BME280;59471;42.254;23.102;2024-02-21T11:03:58;96505.34;;;11.34;55.11
71621;BME280;59471;42.254;23.102;2024-02-21T11:06:26;96500.44;;;11.15;55.32
71621;BME280;59471;42.254;23.102;2024-02-21T11:09:04;96496.66;;;11.42;55.45
71621;BME280;59471;42.254;23.102;2024-02-21T11:11:35;96489.66;;;11.10;55.92
71621;BME280;59471;42.254;23.102;2024-02-21T11:14:17;96501.94;;;10.93;55.46
71621;BME280;59471;42.254;23.102;2024-02-21T11:16:44;96495.53;;;10.79;54.66
71621;BME280;59471;42.254;23.102;2024-02-21T11:19:23;96490.94;;;10.89;55.15
71621;BME280;59471;42.254;23.102;2024-02-21T11:21:50;96484.91;;;10.89;54.78
71621;BME280;59471;42.254;23.102;2024-02-21T11:24:30;96483.38;;;10.62;54.61
71621;BME280;59471;42.254;23.102;2024-02-21T11:27:14;96472.56;;;10.40;54.40
71621;BME280;59471;42.254;23.102;2024-02-21T11:29:47;96480.44;;;10.57;54.61
71621;BME280;59471;42.254;23.102;2024-02-21T11:32:20;96473.75;;;10.62;56.11
71621;BME280;59471;42.254;23.102;2024-02-21T11:35:03;96478.47;;;10.51;56.90
71621;BME280;59471;42.254;23.102;2024-02-21T11:37:31;96469.66;;;10.76;55.28
71621;BME280;59471;42.254;23.102;2024-02-21T11:40:02;96470.97;;;10.64;53.91
71621;BME280;59471;42.254;23.102;2024-02-21T11:42:29;96466.28;;;10.25;53.36
71621;BME280;59471;42.254;23.102;2024-02-21T11:45:00;96460.75;;;10.28;55.20
71621;BME280;59471;42.254;23.102;2024-02-21T11:47:28;96458.84;;;10.55;54.46
71621;BME280;59471;42.254;23.102;2024-02-21T11:49:54;96447.25;;;10.82;54.75
71621;BME280;59471;42.254;23.102;2024-02-21T11:52:23;96451.63;;;10.65;53.47
71621;BME280;59471;42.254;23.102;2024-02-21T11:54:53;96448.34;;;10.55;53.17
71621;BME280;59471;42.254;23.102;2024-02-21T11:57:21;96439.50;;;10.31;54.04
71621;BME280;59471;42.254;23.102;2024-02-21T11:59:47;96442.13;;;10.48;54.76
71621;BME280;59471;42.254;23.102;2024-02-21T12:02:14;96448.16;;;10.40;54.02
71621;BME280;59471;42.254;23.102;2024-02-21T12:04:40;96441.78;;;10.42;52.79
71621;BME280;59471;42.254;23.102;2024-02-21T12:07:07;96444.75;;;10.48;52.81
71621;BME280;59471;42.254;23.102;2024-02-21T12:09:34;96438.84;;;10.37;52.98
71621;BME280;59471;42.254;23.102;2024-02-21T12:12:04;96434.63;;;10.61;51.77
71621;BME280;59471;42.254;23.102;2024-02-21T12:14:32;96435.13;;;10.73;55.05
71621;BME280;59471;42.254;23.102;2024-02-21T12:16:59;96431.31;;;10.42;53.07
71621;BME280;59471;42.254;23.102;2024-02-21T12:19:28;96429.38;;;10.44;53.99
71621;BME280;59471;42.254;23.102;2024-02-21T12:21:54;96425.41;;;10.32;54.28
71621;BME280;59471;42.254;23.102;2024-02-21T12:24:24;96420.19;;;10.32;54.32
71621;BME280;59471;42.254;23.102;2024-02-21T12:26:51;96412.03;;;10.43;55.21
71621;BME280;59471;42.254;23.102;2024-02-21T12:29:18;96410.72;;;10.48;56.53
71621;BME280;59471;42.254;23.102;2024-02-21T12:31:44;96411.72;;;10.63;54.21
71621;BME280;59471;42.254;23.102;2024-02-21T12:34:10;96411.66;;;10.30;54.46
71621;BME280;59471;42.254;23.102;2024-02-21T12:36:41;96414.31;;;9.96;53.14
71621;BME280;59471;42.254;23.102;2024-02-21T12:39:08;96409.34;;;10.19;52.91
71621;BME280;59471;42.254;23.102;2024-02-21T12:41:35;96412.59;;;10.21;52.29
71621;BME280;59471;42.254;23.102;2024-02-21T12:44:09;96409.66;;;10.16;52.75
71621;BME280;59471;42.254;23.102;2024-02-21T12:46:39;96410.03;;;10.46;52.78
71621;BME280;59471;42.254;23.102;2024-02-21T12:49:05;96403.66;;;10.32;52.60
71621;BME280;59471;42.254;23.102;2024-02-21T12:51:32;96399.25;;;10.49;53.14
71621;BME280;59471;42.254;23.102;2024-02-21T12:53:58;96399.25;;;10.81;51.51
71621;BME280;59471;42.254;23.102;2024-02-21T12:56:24;96391.06;;;10.60;51.88
71621;BME280;59471;42.254;23.102;2024-02-21T12:58:52;96391.03;;;10.93;53.04
71621;BME280;59471;42.254;23.102;2024-02-21T13:01:18;96393.97;;;11.14;51.48
71621;BME280;59471;42.254;23.102;2024-02-21T13:03:44;96383.47;;;11.06;53.13
71621;BME280;59471;42.254;23.102;2024-02-21T13:06:12;96374.97;;;11.12;52.45